createdAt,value
2018-05-03T00:01:38.466Z,11.7
2018-05-03T00:02:37.190Z,11.7
2018-05-03T00:03:36.637Z,11.7
2018-05-03T00:04:07.069Z,11.7
2018-05-03T00:04:37.827Z,11.7
2018-05-03T00:05:07.969Z,11.7
2018-05-03T00:05:38.608Z,11.7
2018-05-03T00:06:09.252Z,11.7
2018-05-03T00:06:39.896Z,11.6
2018-05-03T00:07:33.697Z,11.6
2018-05-03T00:08:32.428Z,11.6
2018-05-03T00:09:32.054Z,11.6
2018-05-03T00:10:31.397Z,11.6
2018-05-03T00:11:30.009Z,11.6
2018-05-03T00:12:29.443Z,11.6
2018-05-03T00:13:28.860Z,11.6
2018-05-03T00:14:28.195Z,11.6
2018-05-03T00:16:26.516Z,11.6
2018-05-03T00:17:25.851Z,11.6
2018-05-03T00:19:23.972Z,11.6
2018-05-03T00:21:22.303Z,11.6
2018-05-03T00:22:21.637Z,11.6
2018-05-03T00:23:20.860Z,11.6
2018-05-03T00:24:20.087Z,11.6
2018-05-03T00:26:18.470Z,11.6
2018-05-03T00:27:17.693Z,11.6
2018-05-03T00:29:15.918Z,11.5
2018-05-03T00:30:15.249Z,11.5
2018-05-03T00:31:14.600Z,11.5
2018-05-03T00:32:13.845Z,11.4
2018-05-03T00:33:12.666Z,11.4
2018-05-03T00:34:12.065Z,11.3
2018-05-03T00:35:11.290Z,11.2
2018-05-03T00:36:10.487Z,11.2
2018-05-03T00:37:09.929Z,11.1
2018-05-03T00:38:08.775Z,11.1
2018-05-03T00:40:07.390Z,11
2018-05-03T00:41:06.402Z,11
2018-05-03T00:42:05.732Z,11
2018-05-03T00:43:04.965Z,10.9
2018-05-03T00:44:04.201Z,10.9
2018-05-03T00:46:02.099Z,10.8
2018-05-03T00:47:02.046Z,10.8
2018-05-03T00:48:00.885Z,10.8
2018-05-03T00:49:00.770Z,10.8
2018-05-03T00:50:58.424Z,10.7
2018-05-03T00:51:57.762Z,10.7
2018-05-03T00:52:57.100Z,10.7
2018-05-03T00:53:56.431Z,10.7
2018-05-03T00:54:55.162Z,10.7
2018-05-03T00:55:54.510Z,10.7
2018-05-03T00:56:53.847Z,10.7
2018-05-03T00:57:52.673Z,10.7
2018-05-03T00:58:52.016Z,10.6
2018-05-03T00:59:51.240Z,10.6
2018-05-03T01:00:21.886Z,10.6
2018-05-03T01:00:52.526Z,10.6
2018-05-03T01:01:23.064Z,10.6
2018-05-03T01:02:49.062Z,10.6
2018-05-03T01:03:48.295Z,10.5
2018-05-03T01:04:47.230Z,10.5
2018-05-03T01:06:45.847Z,10.5
2018-05-03T01:07:44.573Z,10.5
2018-05-03T01:09:43.399Z,10.4
2018-05-03T01:10:42.226Z,10.4
2018-05-03T01:11:41.667Z,10.4
2018-05-03T01:12:40.896Z,10.4
2018-05-03T01:13:40.329Z,10.4
2018-05-03T01:14:39.166Z,10.4
2018-05-03T01:15:38.509Z,10.4
2018-05-03T01:16:37.335Z,10.4
2018-05-03T01:17:36.564Z,10.4
2018-05-03T01:18:35.791Z,10.4
2018-05-03T01:19:35.018Z,10.4
2018-05-03T01:20:34.247Z,10.4
2018-05-03T01:21:33.580Z,10.4
2018-05-03T01:22:32.911Z,10.4
2018-05-03T01:23:32.138Z,10.4
2018-05-03T01:24:30.860Z,10.4
2018-05-03T01:25:30.300Z,10.4
2018-05-03T01:26:29.530Z,10.4
2018-05-03T01:27:28.864Z,10.4
2018-05-03T01:28:27.695Z,10.4
2018-05-03T01:29:26.927Z,10.4
2018-05-03T01:29:57.468Z,10.4
2018-05-03T01:30:28.219Z,10.4
2018-05-03T01:30:58.155Z,10.4
2018-05-03T01:31:28.916Z,10.4
2018-05-03T01:31:59.452Z,10.4
2018-05-03T01:33:23.964Z,10.4
2018-05-03T01:35:22.184Z,10.4
2018-05-03T01:38:19.792Z,10.4
2018-05-03T01:39:19.233Z,10.4
2018-05-03T01:40:18.169Z,10.4
2018-05-03T01:40:48.304Z,10.4
2018-05-03T01:41:18.730Z,10.4
2018-05-03T01:41:49.495Z,10.4
2018-05-03T01:42:19.489Z,10.4
2018-05-03T01:42:50.031Z,10.4
2018-05-03T01:44:15.042Z,10.4
2018-05-03T01:45:13.765Z,10.4
2018-05-03T01:46:13.091Z,10.4
2018-05-03T01:47:12.526Z,10.4
2018-05-03T01:49:10.653Z,10.4
2018-05-03T01:50:09.887Z,10.5
2018-05-03T01:51:09.220Z,10.5
2018-05-03T01:53:07.436Z,10.5
2018-05-03T01:56:04.938Z,10.4
2018-05-03T01:57:04.065Z,10.4
2018-05-03T01:58:03.188Z,10.4
2018-05-03T01:59:02.311Z,10.4
2018-05-03T02:00:01.535Z,10.4
2018-05-03T02:01:00.757Z,10.3
2018-05-03T02:01:59.978Z,10.3
2018-05-03T02:02:59.101Z,10.3
2018-05-03T02:05:56.706Z,10.3
2018-05-03T02:07:55.531Z,10.3
2018-05-03T02:08:54.252Z,10.3
2018-05-03T02:09:53.481Z,10.3
2018-05-03T02:10:52.702Z,10.3
2018-05-03T02:11:51.928Z,10.3
2018-05-03T02:12:51.042Z,10.3
2018-05-03T02:13:50.379Z,10.2
2018-05-03T02:14:21.127Z,10.2
2018-05-03T02:14:51.162Z,10.3
2018-05-03T02:15:48.866Z,10.2
2018-05-03T02:16:47.678Z,10.2
2018-05-03T02:17:46.779Z,10.2
2018-05-03T02:18:46.107Z,10.2
2018-05-03T02:20:44.077Z,10.1
2018-05-03T02:22:42.672Z,10.1
2018-05-03T02:23:13.194Z,10.1
2018-05-03T02:25:40.591Z,10.1
2018-05-03T02:26:39.405Z,10.1
2018-05-03T02:27:38.722Z,10.1
2018-05-03T02:28:37.820Z,10.1
2018-05-03T02:29:37.149Z,10.1
2018-05-03T02:31:35.237Z,10.1
2018-05-03T02:32:34.556Z,10.1
2018-05-03T02:33:33.680Z,10.1
2018-05-03T02:35:32.485Z,10.1
2018-05-03T02:36:31.317Z,10.1
2018-05-03T02:37:30.426Z,10.1
2018-05-03T02:38:29.855Z,10.1
2018-05-03T02:39:28.568Z,10.1
2018-05-03T02:40:28.388Z,10.1
2018-05-03T02:42:26.489Z,10.1
2018-05-03T02:43:25.709Z,10.1
2018-05-03T02:44:24.648Z,10.1
2018-05-03T02:45:24.100Z,10.1
2018-05-03T02:46:22.913Z,10.1
2018-05-03T02:47:22.356Z,10.1
2018-05-03T02:48:21.808Z,10.1
2018-05-03T02:49:20.536Z,10.1
2018-05-03T02:50:19.749Z,10.1
2018-05-03T02:51:18.970Z,10.1
2018-05-03T02:52:18.200Z,10.1
2018-05-03T02:53:17.410Z,10
2018-05-03T02:54:16.729Z,10
2018-05-03T02:55:15.450Z,10
2018-05-03T02:57:14.258Z,10
2018-05-03T02:58:13.184Z,10
2018-05-03T02:59:12.618Z,10
2018-05-03T03:01:10.828Z,9.9
2018-05-03T03:02:10.250Z,9.9
2018-05-03T03:03:08.962Z,9.9
2018-05-03T03:04:08.278Z,9.9
2018-05-03T03:05:07.497Z,9.9
2018-05-03T03:06:06.510Z,9.9
2018-05-03T03:07:05.608Z,9.9
2018-05-03T03:08:05.031Z,9.9
2018-05-03T03:10:03.128Z,9.9
2018-05-03T03:11:02.352Z,9.9
2018-05-03T03:12:01.577Z,9.9
2018-05-03T03:13:00.787Z,9.9
2018-05-03T03:13:59.887Z,9.9
2018-05-03T03:14:59.195Z,9.9
2018-05-03T03:15:58.503Z,9.9
2018-05-03T03:16:57.416Z,9.8
2018-05-03T03:18:55.721Z,9.8
2018-05-03T03:20:54.528Z,9.8
2018-05-03T03:22:52.617Z,9.8
2018-05-03T03:23:51.939Z,9.8
2018-05-03T03:24:50.865Z,9.8
2018-05-03T03:25:50.300Z,9.8
2018-05-03T03:26:49.120Z,9.8
2018-05-03T03:28:47.209Z,9.8
2018-05-03T03:29:46.914Z,9.8
2018-05-03T03:31:45.119Z,9.8
2018-05-03T03:33:43.101Z,9.8
2018-05-03T03:35:41.910Z,9.8
2018-05-03T03:36:40.612Z,9.8
2018-05-03T03:37:39.928Z,9.8
2018-05-03T03:38:39.243Z,9.8
2018-05-03T03:39:38.668Z,9.8
2018-05-03T03:40:37.581Z,9.8
2018-05-03T03:41:36.903Z,9.8
2018-05-03T03:42:35.712Z,9.8
2018-05-03T03:43:35.131Z,9.8
2018-05-03T03:44:34.227Z,9.8
2018-05-03T03:46:32.311Z,9.8
2018-05-03T03:48:31.010Z,9.8
2018-05-03T03:49:01.659Z,9.8
2018-05-03T03:49:32.295Z,9.8
2018-05-03T03:50:29.094Z,9.8
2018-05-03T03:51:28.404Z,9.8
2018-05-03T03:52:27.827Z,9.8
2018-05-03T03:53:26.740Z,9.8
2018-05-03T03:54:25.727Z,9.8
2018-05-03T03:55:24.821Z,9.8
2018-05-03T03:56:24.542Z,9.8
2018-05-03T03:57:23.237Z,9.8
2018-05-03T03:58:22.588Z,9.8
2018-05-03T03:59:22.016Z,9.8
2018-05-03T04:01:20.216Z,9.8
2018-05-03T04:02:19.650Z,9.8
2018-05-03T04:03:18.464Z,9.8
2018-05-03T04:04:17.778Z,9.7
2018-05-03T04:05:16.663Z,9.7
2018-05-03T04:06:16.095Z,9.7
2018-05-03T04:07:15.179Z,9.7
2018-05-03T04:08:14.506Z,9.7
2018-05-03T04:10:12.814Z,9.7
2018-05-03T04:12:10.912Z,9.7
2018-05-03T04:13:10.108Z,9.7
2018-05-03T04:14:09.429Z,9.7
2018-05-03T04:15:08.738Z,9.7
2018-05-03T04:16:07.665Z,9.7
2018-05-03T04:17:06.865Z,9.7
2018-05-03T04:18:06.064Z,9.7
2018-05-03T04:19:05.496Z,9.7
2018-05-03T04:20:04.427Z,9.7
2018-05-03T04:21:03.746Z,9.6
2018-05-03T04:22:03.073Z,9.6
2018-05-03T04:23:01.672Z,9.6
2018-05-03T04:24:00.880Z,9.7
2018-05-03T04:25:00.192Z,9.6
2018-05-03T04:25:59.629Z,9.7
2018-05-03T04:26:58.333Z,9.7
2018-05-03T04:27:57.533Z,9.7
2018-05-03T04:28:56.851Z,9.7
2018-05-03T04:29:56.268Z,9.7
2018-05-03T04:30:54.983Z,9.7
2018-05-03T04:31:54.192Z,9.7
2018-05-03T04:32:53.409Z,9.7
2018-05-03T04:33:52.721Z,9.7
2018-05-03T04:35:51.321Z,9.7
2018-05-03T04:36:50.128Z,9.7
2018-05-03T04:37:49.439Z,9.7
2018-05-03T04:38:48.852Z,9.7
2018-05-03T04:39:47.556Z,9.8
2018-05-03T04:41:46.143Z,9.8
2018-05-03T04:43:44.242Z,9.8
2018-05-03T04:44:43.558Z,9.8
2018-05-03T04:45:42.779Z,9.8
2018-05-03T04:47:40.971Z,9.8
2018-05-03T04:49:39.563Z,9.8
2018-05-03T04:53:36.138Z,9.8
2018-05-03T04:54:35.450Z,9.8
2018-05-03T04:55:34.045Z,9.8
2018-05-03T04:56:33.858Z,9.8
2018-05-03T04:57:32.668Z,9.8
2018-05-03T04:58:03.192Z,9.8
2018-05-03T05:00:29.970Z,9.8
2018-05-03T05:01:29.294Z,9.8
2018-05-03T05:02:28.394Z,9.8
2018-05-03T05:03:27.607Z,9.8
2018-05-03T05:04:26.808Z,9.8
2018-05-03T05:06:25.304Z,9.9
2018-05-03T05:07:24.514Z,9.9
2018-05-03T05:08:23.840Z,9.9
2018-05-03T05:11:21.417Z,9.9
2018-05-03T05:13:19.732Z,9.9
2018-05-03T05:15:17.824Z,9.9
2018-05-03T05:16:17.135Z,10
2018-05-03T05:17:16.449Z,10
2018-05-03T05:18:15.261Z,10
2018-05-03T05:19:14.580Z,10
2018-05-03T05:20:13.577Z,10.1
2018-05-03T05:21:12.896Z,10.1
2018-05-03T05:22:11.991Z,10.1
2018-05-03T05:23:11.312Z,10.1
2018-05-03T05:24:10.911Z,10.1
2018-05-03T05:25:09.626Z,10.1
2018-05-03T05:26:08.943Z,10.1
2018-05-03T05:27:07.753Z,10.1
2018-05-03T05:28:06.958Z,10.1
2018-05-03T05:29:06.269Z,10.1
2018-05-03T05:30:05.369Z,10.2
2018-05-03T05:31:04.475Z,10.2
2018-05-03T05:32:03.682Z,10.2
2018-05-03T05:34:01.888Z,10.3
2018-05-03T05:35:01.328Z,10.3
2018-05-03T05:36:00.637Z,10.4
2018-05-03T05:36:59.848Z,10.4
2018-05-03T05:37:58.768Z,10.4
2018-05-03T05:38:58.653Z,10.4
2018-05-03T05:39:28.277Z,10.4
2018-05-03T05:40:56.062Z,10.4
2018-05-03T05:41:55.367Z,10.4
2018-05-03T05:42:54.675Z,10.4
2018-05-03T05:43:53.879Z,10.4
2018-05-03T05:45:52.082Z,10.4
2018-05-03T05:46:51.516Z,10.4
2018-05-03T05:47:50.329Z,10.4
2018-05-03T05:48:49.428Z,10.4
2018-05-03T05:49:48.743Z,10.5
2018-05-03T05:50:48.171Z,10.5
2018-05-03T05:51:47.381Z,10.5
2018-05-03T05:52:46.486Z,10.5
2018-05-03T05:54:44.590Z,10.5
2018-05-03T05:55:43.797Z,10.5
2018-05-03T05:56:43.723Z,10.5
2018-05-03T05:58:41.527Z,10.5
2018-05-03T05:59:40.629Z,10.5
2018-05-03T06:00:39.943Z,10.5
2018-05-03T06:01:39.254Z,10.5
2018-05-03T06:02:37.857Z,10.6
2018-05-03T06:03:37.172Z,10.6
2018-05-03T06:04:36.271Z,10.6
2018-05-03T06:05:35.159Z,10.7
2018-05-03T06:07:33.961Z,10.8
2018-05-03T06:08:33.275Z,10.8
2018-05-03T06:09:32.489Z,10.8
2018-05-03T06:10:31.697Z,10.9
2018-05-03T06:13:29.068Z,11
2018-05-03T06:15:27.284Z,11.1
2018-05-03T06:16:26.601Z,11.1
2018-05-03T06:17:25.811Z,11.1
2018-05-03T06:18:25.125Z,11.1
2018-05-03T06:20:23.468Z,11.3
2018-05-03T06:20:53.694Z,11.3
2018-05-03T06:22:21.481Z,11.3
2018-05-03T06:24:20.192Z,11.3
2018-05-03T06:25:19.519Z,11.3
2018-05-03T06:26:18.227Z,11.3
2018-05-03T06:27:17.432Z,11.4
2018-05-03T06:28:16.755Z,11.5
2018-05-03T06:29:16.073Z,11.5
2018-05-03T06:34:11.920Z,11.7
2018-05-03T06:35:11.345Z,11.7
2018-05-03T06:36:10.155Z,11.8
2018-05-03T06:37:09.141Z,11.8
2018-05-03T06:38:08.852Z,11.9
2018-05-03T06:39:08.060Z,11.9
2018-05-03T06:40:06.761Z,12
2018-05-03T06:41:05.970Z,12.1
2018-05-03T06:42:05.072Z,12.2
2018-05-03T06:43:04.683Z,12.2
2018-05-03T06:44:04.012Z,12.3
2018-05-03T06:45:03.130Z,12.4
2018-05-03T06:46:02.240Z,12.4
2018-05-03T06:47:01.443Z,12.5
2018-05-03T06:48:00.697Z,12.6
2018-05-03T06:48:59.894Z,12.7
2018-05-03T06:49:58.885Z,12.8
2018-05-03T06:50:58.333Z,12.9
2018-05-03T06:51:57.662Z,12.9
2018-05-03T06:52:56.471Z,13
2018-05-03T06:54:55.287Z,13.2
2018-05-03T06:55:53.993Z,13.2
2018-05-03T06:56:53.210Z,13.2
2018-05-03T06:57:23.831Z,13.2
2018-05-03T06:57:54.573Z,13.2
2018-05-03T06:58:51.875Z,13.2
2018-05-03T06:59:51.191Z,13.2
2018-05-03T07:00:50.008Z,13.2
2018-05-03T07:01:49.435Z,13.2
2018-05-03T07:02:48.432Z,13.2
2018-05-03T07:03:47.856Z,13.2
2018-05-03T07:04:46.848Z,13.3
2018-05-03T07:06:45.556Z,13.4
2018-05-03T07:07:44.762Z,13.4
2018-05-03T07:09:42.956Z,13.4
2018-05-03T07:10:42.269Z,13.4
2018-05-03T07:11:41.581Z,13.4
2018-05-03T07:12:40.895Z,13.5
2018-05-03T07:13:40.310Z,13.4
2018-05-03T07:14:38.901Z,13.5
2018-05-03T07:16:37.492Z,13.5
2018-05-03T07:17:36.701Z,13.5
2018-05-03T07:19:35.188Z,13.5
2018-05-03T07:21:33.767Z,13.5
2018-05-03T07:22:32.970Z,13.6
2018-05-03T07:23:32.075Z,13.6
2018-05-03T07:24:31.284Z,13.6
2018-05-03T07:25:30.708Z,13.7
2018-05-03T07:26:29.917Z,13.6
2018-05-03T07:27:29.234Z,13.6
2018-05-03T07:28:28.058Z,13.6
2018-05-03T07:29:27.984Z,13.7
2018-05-03T07:30:26.803Z,13.8
2018-05-03T07:31:26.228Z,13.8
2018-05-03T07:32:25.031Z,13.9
2018-05-03T07:33:24.253Z,13.9
2018-05-03T07:34:23.365Z,14
2018-05-03T07:35:22.466Z,14.1
2018-05-03T07:37:21.060Z,14.1
2018-05-03T07:38:20.484Z,14.1
2018-05-03T07:39:19.690Z,14.1
2018-05-03T07:40:19.125Z,14.1
2018-05-03T07:41:18.327Z,14.1
2018-05-03T07:43:16.539Z,14.1
2018-05-03T07:44:15.631Z,14.1
2018-05-03T07:45:14.836Z,14.1
2018-05-03T07:46:14.659Z,14.1
2018-05-03T07:47:13.593Z,14.2
2018-05-03T07:49:11.927Z,14.3
2018-05-03T07:50:11.248Z,14.3
2018-05-03T07:51:10.671Z,14.3
2018-05-03T07:52:09.765Z,14.4
2018-05-03T07:53:08.978Z,14.4
2018-05-03T07:54:08.189Z,14.5
2018-05-03T07:55:07.392Z,14.6
2018-05-03T07:56:06.497Z,14.6
2018-05-03T07:57:05.606Z,14.6
2018-05-03T07:57:36.316Z,14.6
2018-05-03T07:58:06.333Z,14.6
2018-05-03T07:58:37.085Z,14.6
2018-05-03T08:00:03.894Z,14.6
2018-05-03T08:01:02.883Z,14.6
2018-05-03T08:02:02.537Z,14.6
2018-05-03T08:03:01.565Z,14.7
2018-05-03T08:04:00.480Z,14.6
2018-05-03T08:04:59.793Z,14.7
2018-05-03T08:05:58.994Z,14.7
2018-05-03T08:06:58.301Z,14.7
2018-05-03T08:07:57.614Z,14.7
2018-05-03T08:08:28.374Z,14.7
2018-05-03T08:08:58.601Z,14.7
2018-05-03T08:09:28.617Z,14.7
2018-05-03T08:11:54.281Z,14.8
2018-05-03T08:12:53.477Z,14.9
2018-05-03T08:13:52.889Z,14.8
2018-05-03T08:15:51.603Z,15
2018-05-03T08:16:50.815Z,14.9
2018-05-03T08:17:50.023Z,14.9
2018-05-03T08:18:49.240Z,14.9
2018-05-03T08:19:48.676Z,14.9
2018-05-03T08:20:47.990Z,14.9
2018-05-03T08:21:46.810Z,15
2018-05-03T08:22:46.043Z,14.9
2018-05-03T08:23:45.139Z,14.9
2018-05-03T08:24:45.061Z,14.8
2018-05-03T08:25:43.881Z,14.8
2018-05-03T08:26:43.301Z,14.8
2018-05-03T08:27:42.741Z,14.8
2018-05-03T08:28:42.073Z,14.9
2018-05-03T08:29:41.178Z,15
2018-05-03T08:30:40.491Z,15
2018-05-03T08:31:39.844Z,14.8
2018-05-03T08:32:38.772Z,14.8
2018-05-03T08:33:38.083Z,14.9
2018-05-03T08:34:37.293Z,14.9
2018-05-03T08:35:36.602Z,14.9
2018-05-03T08:36:35.698Z,15
2018-05-03T08:37:34.799Z,15
2018-05-03T08:39:33.387Z,14.9
2018-05-03T08:41:32.092Z,15
2018-05-03T08:42:31.298Z,15
2018-05-03T08:43:30.408Z,15.1
2018-05-03T08:45:29.113Z,15
2018-05-03T08:46:28.421Z,15
2018-05-03T08:47:27.521Z,15
2018-05-03T08:48:27.222Z,14.9
2018-05-03T08:49:26.075Z,14.9
2018-05-03T08:50:25.521Z,15
2018-05-03T08:51:24.940Z,15
2018-05-03T08:52:24.150Z,15
2018-05-03T08:55:21.841Z,14.9
2018-05-03T08:56:21.158Z,15
2018-05-03T08:57:20.606Z,15.1
2018-05-03T08:58:19.699Z,15.1
2018-05-03T08:59:19.026Z,15.1
2018-05-03T09:00:18.125Z,15.1
2018-05-03T09:01:17.888Z,15.1
2018-05-03T09:02:16.550Z,15.1
2018-05-03T09:03:15.860Z,15.1
2018-05-03T09:04:14.855Z,15.2
2018-05-03T09:05:14.573Z,15.1
2018-05-03T09:06:13.887Z,15.2
2018-05-03T09:07:13.201Z,15.2
2018-05-03T09:08:12.416Z,15.2
2018-05-03T09:09:11.838Z,15.2
2018-05-03T09:10:10.752Z,15.3
2018-05-03T09:11:09.852Z,15.3
2018-05-03T09:12:09.783Z,15.4
2018-05-03T09:14:07.986Z,15.5
2018-05-03T09:15:07.414Z,15.6
2018-05-03T09:16:06.751Z,15.6
2018-05-03T09:17:05.965Z,15.5
2018-05-03T09:18:05.170Z,15.5
2018-05-03T09:21:02.658Z,15.5
2018-05-03T09:23:01.260Z,15.5
2018-05-03T09:24:00.475Z,15.6
2018-05-03T09:24:59.897Z,15.6
2018-05-03T09:26:58.602Z,15.7
2018-05-03T09:27:57.697Z,15.7
2018-05-03T09:28:57.129Z,15.8
2018-05-03T09:29:56.337Z,15.8
2018-05-03T09:30:55.652Z,15.8
2018-05-03T09:31:54.968Z,15.8
2018-05-03T09:32:54.171Z,15.9
2018-05-03T09:33:53.478Z,15.9
2018-05-03T09:35:52.294Z,16
2018-05-03T09:36:51.176Z,16
2018-05-03T09:37:50.173Z,16.1
2018-05-03T09:38:49.885Z,16
2018-05-03T09:39:49.093Z,16
2018-05-03T09:40:48.299Z,15.9
2018-05-03T09:41:47.502Z,15.8
2018-05-03T09:42:46.938Z,15.8
2018-05-03T09:44:46.097Z,15.9
2018-05-03T09:45:44.801Z,15.9
2018-05-03T09:48:42.788Z,16
2018-05-03T09:50:41.383Z,16.3
2018-05-03T09:51:40.695Z,16.2
2018-05-03T09:52:40.113Z,16.3
2018-05-03T09:53:39.529Z,16.3
2018-05-03T09:54:38.439Z,16.2
2018-05-03T09:55:37.662Z,16.1
2018-05-03T09:56:36.974Z,16.2
2018-05-03T09:57:36.287Z,16.1
2018-05-03T09:58:35.496Z,16.1
2018-05-03T09:59:34.803Z,16.2
2018-05-03T10:00:34.008Z,16.2
2018-05-03T10:01:33.320Z,16.2
2018-05-03T10:04:31.430Z,16.5
2018-05-03T10:05:30.853Z,16.5
2018-05-03T10:06:30.278Z,16.4
2018-05-03T10:07:29.266Z,16.4
2018-05-03T10:08:28.580Z,16.5
2018-05-03T10:09:28.021Z,16.5
2018-05-03T10:10:27.441Z,16.6
2018-05-03T10:12:25.748Z,16.6
2018-05-03T10:13:25.084Z,16.6
2018-05-03T10:14:24.172Z,16.6
2018-05-03T10:15:23.629Z,16.7
2018-05-03T10:16:22.940Z,16.8
2018-05-03T10:17:22.267Z,16.8
2018-05-03T10:18:21.470Z,16.8
2018-05-03T10:19:20.785Z,16.6
2018-05-03T10:22:18.758Z,16.3
2018-05-03T10:23:18.068Z,16.5
2018-05-03T10:25:16.779Z,16.4
2018-05-03T10:27:15.373Z,16.6
2018-05-03T10:30:13.163Z,16.8
2018-05-03T10:30:43.374Z,16.8
2018-05-03T10:32:11.979Z,16.8
2018-05-03T10:33:11.414Z,16.6
2018-05-03T10:34:10.512Z,16.6
2018-05-03T10:35:09.828Z,16.6
2018-05-03T10:36:10.179Z,16.6
2018-05-03T10:37:08.511Z,16.5
2018-05-03T10:38:07.823Z,16.6
2018-05-03T10:39:06.926Z,16.5
2018-05-03T10:40:06.130Z,16.4
2018-05-03T10:41:05.220Z,16.4
2018-05-03T10:41:35.634Z,16.4
2018-05-03T10:42:07.055Z,16.5
2018-05-03T10:43:04.059Z,16.6
2018-05-03T10:44:03.152Z,16.5
2018-05-03T10:45:02.979Z,16.6
2018-05-03T10:47:01.179Z,16.5
2018-05-03T10:48:00.778Z,16.5
2018-05-03T10:49:00.364Z,16.3
2018-05-03T10:49:59.181Z,16.4
2018-05-03T10:50:58.498Z,16.5
2018-05-03T10:52:57.195Z,16.7
2018-05-03T10:53:56.583Z,16.7
2018-05-03T10:54:55.914Z,16.5
2018-05-03T10:55:55.328Z,16.5
2018-05-03T10:56:54.537Z,16.6
2018-05-03T10:59:52.521Z,16.7
2018-05-03T11:00:51.621Z,16.8
2018-05-03T11:01:50.721Z,16.9
2018-05-03T11:02:50.539Z,17.1
2018-05-03T11:03:49.963Z,17.2
2018-05-03T11:04:48.789Z,17.2
2018-05-03T11:06:47.601Z,16.9
2018-05-03T11:07:46.484Z,16.9
2018-05-03T11:08:46.189Z,16.8
2018-05-03T11:09:45.394Z,16.8
2018-05-03T11:10:44.703Z,16.9
2018-05-03T11:11:43.801Z,16.9
2018-05-03T11:12:43.617Z,17
2018-05-03T11:13:42.819Z,17.1
2018-05-03T11:14:42.229Z,17.2
2018-05-03T11:15:41.431Z,17.1
2018-05-03T11:17:40.135Z,17.2
2018-05-03T11:18:39.554Z,17.3
2018-05-03T11:20:38.159Z,17.5
2018-05-03T11:22:36.858Z,17.6
2018-05-03T11:23:36.277Z,17.5
2018-05-03T11:24:35.488Z,17.4
2018-05-03T11:25:34.917Z,17.3
2018-05-03T11:26:34.234Z,17.3
2018-05-03T11:27:33.545Z,17.3
2018-05-03T11:29:32.243Z,17.4
2018-05-03T11:30:31.566Z,17.5
2018-05-03T11:32:29.759Z,17.5
2018-05-03T11:33:29.251Z,17.6
2018-05-03T11:34:28.668Z,17.5
2018-05-03T11:36:27.258Z,17.6
2018-05-03T11:37:26.473Z,17.6
2018-05-03T11:38:25.785Z,17.6
2018-05-03T11:39:25.110Z,17.7
2018-05-03T11:40:24.825Z,17.7
2018-05-03T11:41:24.135Z,17.7
2018-05-03T11:42:23.439Z,17.6
2018-05-03T11:43:22.751Z,17.6
2018-05-03T11:44:22.080Z,17.8
2018-05-03T11:45:21.282Z,17.9
2018-05-03T11:47:19.874Z,18
2018-05-03T11:49:18.471Z,17.7
2018-05-03T11:50:17.887Z,17.7
2018-05-03T11:51:17.095Z,17.7
2018-05-03T11:54:15.176Z,17.8
2018-05-03T11:55:14.483Z,17.8
2018-05-03T11:57:13.203Z,17.6
2018-05-03T11:58:12.619Z,17.8
2018-05-03T11:59:13.189Z,17.6
2018-05-03T12:00:11.516Z,17.8
2018-05-03T12:01:10.939Z,18.1
2018-05-03T12:02:10.149Z,18.2
2018-05-03T12:03:09.457Z,18
2018-05-03T12:04:08.451Z,17.9
2018-05-03T12:05:08.170Z,17.7
2018-05-03T12:06:08.129Z,17.9
2018-05-03T12:08:06.226Z,18.1
2018-05-03T12:10:04.822Z,18.5
2018-05-03T12:11:04.421Z,18.5
2018-05-03T12:12:03.627Z,18.6
2018-05-03T12:13:02.836Z,18.5
2018-05-03T12:14:02.039Z,18.5
2018-05-03T12:15:01.636Z,18.3
2018-05-03T12:16:00.736Z,18.2
2018-05-03T12:17:00.582Z,18.4
2018-05-03T12:18:00.034Z,18.3
2018-05-03T12:18:59.237Z,18.4
2018-05-03T12:19:58.553Z,18.4
2018-05-03T12:21:57.257Z,18.6
2018-05-03T12:22:56.355Z,18.5
2018-05-03T12:24:55.450Z,18.5
2018-05-03T12:26:54.260Z,18.7
2018-05-03T12:27:53.581Z,18.5
2018-05-03T12:29:52.064Z,18.2
2018-05-03T12:30:51.789Z,18.2
2018-05-03T12:31:51.219Z,18.3
2018-05-03T12:34:49.085Z,18
2018-05-03T12:35:48.206Z,18.2
2018-05-03T12:36:47.529Z,18.4
2018-05-03T12:38:46.876Z,18.3
2018-05-03T12:39:45.687Z,18.4
2018-05-03T12:40:45.503Z,18.4
2018-05-03T12:41:44.822Z,18.7
2018-05-03T12:42:44.016Z,18.7
2018-05-03T12:43:43.322Z,18.9
2018-05-03T12:44:42.742Z,18.7
2018-05-03T12:45:42.050Z,18.8
2018-05-03T12:46:41.154Z,18.8
2018-05-03T12:47:40.860Z,18.8
2018-05-03T12:48:40.285Z,18.4
2018-05-03T12:49:39.508Z,18.4
2018-05-03T12:50:38.992Z,18.4
2018-05-03T12:51:38.413Z,18.6
2018-05-03T12:52:37.630Z,18.5
2018-05-03T12:53:36.735Z,18.7
2018-05-03T12:54:36.668Z,18.8
2018-05-03T12:55:35.876Z,19
2018-05-03T12:56:35.187Z,19.2
2018-05-03T12:57:34.494Z,19.3
2018-05-03T12:58:34.311Z,19.3
2018-05-03T13:00:32.918Z,18.8
2018-05-03T13:01:32.303Z,19
2018-05-03T13:03:31.108Z,18.6
2018-05-03T13:04:30.544Z,18.5
2018-05-03T13:05:29.866Z,18.7
2018-05-03T13:06:29.063Z,18.8
2018-05-03T13:07:28.386Z,19
2018-05-03T13:08:27.592Z,18.8
2018-05-03T13:08:58.107Z,18.8
2018-05-03T13:09:28.626Z,18.7
2018-05-03T13:10:26.499Z,18.7
2018-05-03T13:11:26.034Z,18.7
2018-05-03T13:13:24.851Z,18.8
2018-05-03T13:14:24.058Z,18.9
2018-05-03T13:15:23.480Z,19.1
2018-05-03T13:17:21.969Z,19.6
2018-05-03T13:18:21.784Z,19.3
2018-05-03T13:18:52.408Z,19.3
2018-05-03T13:20:20.517Z,18.7
2018-05-03T13:20:50.637Z,18.7
2018-05-03T13:21:21.409Z,18.8
2018-05-03T13:21:51.930Z,18.8
2018-05-03T13:23:18.821Z,19.1
2018-05-03T13:24:18.031Z,19.2
2018-05-03T13:26:16.736Z,19.3
2018-05-03T13:27:15.938Z,19.2
2018-05-03T13:28:15.747Z,19.3
2018-05-03T13:29:15.064Z,19.3
2018-05-03T13:30:14.394Z,19.2
2018-05-03T13:30:45.141Z,19.2
2018-05-03T13:31:15.277Z,19.3
2018-05-03T13:31:45.918Z,19.3
2018-05-03T13:33:12.812Z,19.7
2018-05-03T13:34:12.131Z,19.5
2018-05-03T13:36:10.726Z,19.3
2018-05-03T13:37:10.547Z,19.4
2018-05-03T13:38:09.755Z,19.4
2018-05-03T13:39:09.176Z,19.3
2018-05-03T13:40:08.273Z,19
2018-05-03T13:42:07.587Z,19.1
2018-05-03T13:43:07.194Z,19.1
2018-05-03T13:44:05.863Z,19.3
2018-05-03T13:46:04.961Z,19.1
2018-05-03T13:48:03.547Z,19.4
2018-05-03T13:50:02.776Z,18.9
2018-05-03T13:54:00.041Z,19.2
2018-05-03T13:54:59.850Z,19.3
2018-05-03T13:55:59.271Z,19.5
2018-05-03T13:56:58.701Z,19.3
2018-05-03T13:57:58.017Z,19.4
2018-05-03T13:58:57.444Z,19.2
2018-05-03T13:59:56.647Z,19.1
2018-05-03T14:00:56.742Z,19.4
2018-05-03T14:01:55.572Z,19.1
2018-05-03T14:02:26.309Z,19.1
2018-05-03T14:03:54.198Z,19.2
2018-05-03T14:04:24.724Z,19.2
2018-05-03T14:05:53.120Z,19.4
2018-05-03T14:07:52.329Z,19.3
2018-05-03T14:08:51.532Z,19.2
2018-05-03T14:09:50.625Z,19.2
2018-05-03T14:10:50.460Z,19.4
2018-05-03T14:11:49.908Z,19.3
2018-05-03T14:12:49.334Z,19.2
2018-05-03T14:13:48.540Z,19.3
2018-05-03T14:14:19.185Z,19.3
2018-05-03T14:14:49.187Z,19.2
2018-05-03T14:15:19.814Z,19.2
2018-05-03T14:15:50.335Z,19.1
2018-05-03T14:17:46.416Z,18.7
2018-05-03T14:18:45.839Z,18.7
2018-05-03T14:19:45.551Z,19
2018-05-03T14:20:44.934Z,19.2
2018-05-03T14:21:44.089Z,19.2
2018-05-03T14:22:44.030Z,19.6
2018-05-03T14:23:43.344Z,19.6
2018-05-03T14:25:42.050Z,19.4
2018-05-03T14:27:40.824Z,19.3
2018-05-03T14:30:39.418Z,19.3
2018-05-03T14:31:38.628Z,19.1
2018-05-03T14:32:38.439Z,19
2018-05-03T14:33:37.436Z,19
2018-05-03T14:34:37.267Z,18.9
2018-05-03T14:36:35.966Z,19.2
2018-05-03T14:37:35.063Z,19.2
2018-05-03T14:39:34.384Z,19.1
2018-05-03T14:41:33.103Z,19.3
2018-05-03T14:42:32.420Z,19.5
2018-05-03T14:43:31.635Z,19.8
2018-05-03T14:44:31.344Z,19.6
2018-05-03T14:45:30.542Z,19.4
2018-05-03T14:47:29.641Z,19.3
2018-05-03T14:48:28.739Z,19.4
2018-05-03T14:49:28.447Z,19.6
2018-05-03T14:50:27.870Z,19.5
2018-05-03T14:51:27.183Z,19.2
2018-05-03T14:52:27.005Z,19.4
2018-05-03T14:53:26.103Z,19.3
2018-05-03T14:54:25.929Z,19.1
2018-05-03T14:55:25.137Z,19.4
2018-05-03T14:56:24.339Z,19.2
2018-05-03T14:58:23.437Z,19
2018-05-03T14:59:23.139Z,19.1
2018-05-03T15:00:22.340Z,19.4
2018-05-03T15:01:21.754Z,19.4
2018-05-03T15:01:51.887Z,19.4
2018-05-03T15:02:22.645Z,19.1
2018-05-03T15:03:20.841Z,19
2018-05-03T15:04:20.046Z,19
2018-05-03T15:05:19.359Z,19.2
2018-05-03T15:06:19.184Z,19.2
2018-05-03T15:07:18.623Z,19.3
2018-05-03T15:08:18.040Z,19.5
2018-05-03T15:09:17.152Z,19.7
2018-05-03T15:10:17.072Z,19.3
2018-05-03T15:11:16.278Z,19.2
2018-05-03T15:12:15.694Z,19.2
2018-05-03T15:12:46.282Z,19.2
2018-05-03T15:13:16.091Z,19.2
2018-05-03T15:14:14.196Z,19.2
2018-05-03T15:15:14.008Z,19.3
2018-05-03T15:16:14.211Z,19.3
2018-05-03T15:17:13.029Z,19.3
2018-05-03T15:19:11.634Z,19.3
2018-05-03T15:20:10.848Z,19
2018-05-03T15:21:10.782Z,18.8
2018-05-03T15:22:10.108Z,18.8
2018-05-03T15:24:09.117Z,19
2018-05-03T15:25:08.439Z,19.2
2018-05-03T15:26:07.643Z,19.2
2018-05-03T15:27:07.130Z,19.1
2018-05-03T15:29:05.799Z,19
2018-05-03T15:30:05.612Z,19